Latest Weather Observations for Campbelltown

IDN60801

Issued at 10:03 pm EST Saturday 25 June 2016 (issued every 30 minutes, with the page automatically refreshed every 10 minutes)

About weather observations | Map of weather stations | Latest weather observations for NSW | Other Formats
Station Details ID: 068257 Name: CAMPBELLTOWN (MOUNT ANNAN) Lat: -34.06 Lon: 150.77 Height: 112.0 m
Data from the previous 72 hours. | See also: Recent months at Campbelltown
Date/Time
EST
Temp
°C
App
Temp
°C
Dew
Point
°C
Rel
Hum
%
Delta-T
°C
Wind Press
QNH
hPa
Press
MSL
hPa
Rain since
9am
mm
Dir  Spd
km/h
Gust
km/h
Spd
kts
Gust
kts
25/10:00pm 3.7 0.7 0.6 80 1.2 SSW 6 9 3 5 - - 0.0
25/09:30pm 3.7 1.8 0.6 80 1.2 CALM 0 0 0 0 - - 0.0
25/09:00pm 3.9 1.2 0.2 77 1.4 SSW 4 11 2 6 - - 0.0
25/08:30pm 3.9 0.9 0.6 79 1.3 SSW 6 9 3 5 - - 0.0
25/08:00pm 4.0 0.9 0.2 76 1.4 SSW 6 7 3 4 - - 0.0
25/07:30pm 4.5 1.4 -0.1 72 1.7 SSW 6 9 3 5 - - 0.0
25/07:00pm 5.7 2.5 -0.6 64 2.4 SW 6 7 3 4 - - 0.0
25/06:30pm 7.9 4.6 -1.1 53 3.5 SW 6 9 3 5 - - 0.0
25/06:00pm 8.7 4.8 -1.4 49 3.9 WSW 9 15 5 8 - - 0.0
25/05:30pm 9.4 6.1 -1.6 46 4.3 WSW 6 13 3 7 - - 0.0
25/05:00pm 10.1 6.7 -2.2 42 4.7 WSW 6 11 3 6 - - 0.0
25/04:30pm 11.6 7.4 -4.1 33 5.9 SW 9 13 5 7 - - 0.0
25/04:00pm 13.0 8.8 -4.1 30 6.5 SW 9 17 5 9 - - 0.0
25/03:30pm 13.2 8.1 -4.9 28 6.8 SSW 13 22 7 12 - - 0.0
25/03:00pm 13.5 8.4 -5.1 27 6.9 SSW 13 22 7 12 - - 0.0
25/02:30pm 14.2 9.6 -4.0 28 7.0 SW 11 22 6 12 - - 0.0
25/02:00pm 14.0 9.0 -4.2 28 7.0 SW 13 20 7 11 - - 0.0
25/01:30pm 13.3 7.9 -4.8 28 6.8 SW 15 26 8 14 - - 0.0
25/01:00pm 13.1 7.3 -5.0 28 6.7 SW 17 28 9 15 - - 0.0
25/12:30pm 13.1 7.3 -5.0 28 6.7 SSW 17 28 9 15 - - 0.0
25/12:00pm 12.7 7.7 -4.4 30 6.4 SW 13 20 7 11 - - 0.0
25/11:30am 12.0 6.2 -4.2 32 6.1 SW 17 28 9 15 - - 0.0
25/11:00am 11.3 6.0 -4.0 34 5.7 SW 15 28 8 15 - - 0.0
25/10:30am 10.7 5.0 -3.7 36 5.4 SW 17 30 9 16 - - 0.0
25/10:00am 10.3 5.0 -3.7 37 5.2 SW 15 26 8 14 - - 0.0
25/09:30am 9.5 5.0 -3.1 41 4.7 SW 11 20 6 11 - - 0.0
25/09:00am 8.3 3.9 -2.3 47 4.0 SW 11 19 6 10 - - 0.0
25/08:30am 6.9 2.9 -2.3 52 3.4 SSW 9 13 5 7 - - 0.0
25/08:00am 6.5 2.5 -2.6 52 3.3 SSW 9 20 5 11 - - 0.0
25/07:30am 5.1 0.7 -2.2 59 2.6 SW 11 19 6 10 - - 0.0
25/07:00am 4.2 0.2 -2.0 64 2.2 SW 9 13 5 7 - - 0.0
25/06:30am 4.8 1.1 -2.5 59 2.6 SSW 7 11 4 6 - - 0.0
25/06:00am 5.5 1.4 -2.8 55 3.0 SSW 9 13 5 7 - - 0.0
25/05:30am 6.0 2.0 -2.6 54 3.1 WSW 9 17 5 9 - - 0.0
25/05:00am 6.3 1.9 -2.8 52 3.3 WSW 11 20 6 11 - - 0.0
25/04:30am 6.1 2.0 -2.7 53 3.2 WSW 9 17 5 9 - - 0.0
25/04:00am 6.1 1.8 -2.0 56 3.0 WSW 11 20 6 11 - - 0.0
25/03:30am 5.4 1.5 -1.7 60 2.6 SW 9 13 5 7 - - 0.0
25/03:00am 6.4 2.4 -2.2 54 3.2 SSW 9 17 5 9 - - 0.0
25/02:30am 6.8 2.4 -2.1 53 3.3 SW 11 19 6 10 - - 0.0
25/02:00am 7.3 2.1 -2.4 50 3.6 SW 15 20 8 11 - - 0.0
25/01:30am 7.2 2.8 -2.2 51 3.5 WSW 11 19 6 10 - - 0.0
25/01:00am 7.7 2.6 -2.0 50 3.6 WSW 15 24 8 13 - - 0.0
25/12:30am 7.8 2.7 -2.2 49 3.7 WSW 15 32 8 17 - - 0.0
25/12:00am 7.8 2.2 -2.5 48 3.8 SW 17 26 9 14 - - 0.0
 
Date/Time
EST
Temp
°C
App
Temp
°C
Dew
Point
°C
Rel
Hum
%
Delta-T
°C
Wind Press
QNH
hPa
Press
MSL
hPa
Rain since
9am
mm
Dir  Spd
km/h
Gust
km/h
Spd
kts
Gust
kts
24/11:30pm 8.0 2.5 -2.3 48 3.9 SW 17 32 9 17 - - 0.0
24/11:00pm 8.1 3.0 -2.0 49 3.8 WSW 15 30 8 16 - - 0.0
24/10:30pm 8.8 3.0 -1.6 48 4.0 WSW 19 35 10 19 - - 0.0
24/10:00pm 8.4 3.8 -1.4 50 3.8 WSW 13 22 7 12 - - 0.0
24/09:30pm 8.0 3.8 -1.2 52 3.5 WSW 11 19 6 10 - - 0.0
24/09:00pm 8.3 3.7 -1.2 51 3.7 WSW 13 22 7 12 - - 0.0
24/08:30pm 8.4 3.4 -1.1 51 3.7 WSW 15 22 8 12 - - 0.0
24/08:00pm 8.6 3.6 -1.2 50 3.8 WSW 15 33 8 18 - - 0.0
24/07:30pm 8.5 3.6 -0.8 52 3.6 WSW 15 32 8 17 - - 0.0
24/07:00pm 8.1 3.6 -0.1 56 3.2 SW 13 28 7 15 - - 0.0
24/06:30pm 8.6 3.4 0.1 55 3.4 W 17 32 9 17 - - 0.0
24/06:00pm 8.3 3.5 0.5 58 3.1 WSW 15 32 8 17 - - 0.0
24/05:30pm 9.1 3.3 0.0 53 3.6 WSW 20 43 11 23 - - 0.0
24/05:00pm 8.9 4.9 0.6 56 3.4 SW 11 22 6 12 - - 0.0
24/04:30pm 9.7 3.9 0.1 51 3.9 W 20 50 11 27 - - 0.0
24/04:00pm 10.8 5.9 1.9 54 3.8 WNW 17 32 9 17 - - 0.0
24/03:30pm 10.9 5.7 0.3 48 4.4 W 17 37 9 20 - - 0.0
24/03:00pm 12.5 8.1 0.6 44 5.0 WSW 13 24 7 13 - - 0.0
24/02:30pm 12.9 7.4 0.6 43 5.2 WSW 19 32 10 17 - - 0.0
24/02:00pm 13.9 8.7 0.2 39 5.8 WSW 17 28 9 15 - - 0.0
24/01:30pm 13.8 7.8 -1.4 35 6.2 SW 20 39 11 21 - - 0.0
24/01:00pm 14.7 7.7 -3.6 28 7.2 WNW 24 52 13 28 - - 0.0
24/12:30pm 15.3 9.8 -2.2 30 7.1 W 17 39 9 21 - - 0.0
24/12:00pm 15.0 9.0 -1.5 32 6.8 W 20 43 11 23 - - 0.0
24/11:30am 14.1 7.6 0.0 38 5.9 WSW 24 43 13 23 - - 0.0
24/11:00am 14.0 8.8 2.6 46 5.1 WSW 19 33 10 18 - - 0.0
24/10:30am 13.8 10.1 4.4 53 4.3 WSW 13 20 7 11 - - 0.0
24/10:00am 12.6 8.7 3.6 54 4.0 WSW 13 24 7 13 - - 0.0
24/09:30am 13.6 10.3 4.7 55 4.1 WSW 11 19 6 10 - - 0.0
24/09:00am 12.5 9.1 6.1 65 3.0 SW 13 24 7 13 - - 0.2
24/08:30am 12.1 9.6 6.4 68 2.7 W 9 22 5 12 - - 0.0
24/08:00am 9.9 8.9 9.0 94 0.4 W 4 7 2 4 - - 0.0
24/07:30am 6.4 5.4 5.4 93 0.4 CALM 0 0 0 0 - - 0.0
24/07:00am 6.0 4.4 4.3 89 0.7 W 2 6 1 3 - - 0.0
24/06:30am 6.5 5.3 4.5 87 0.9 CALM 0 0 0 0 - - 0.0
24/06:00am 6.5 5.2 4.3 86 1.0 CALM 0 0 0 0 - - 0.0
24/05:30am 8.2 6.2 6.3 88 0.9 NW 6 9 3 5 - - 0.0
24/05:00am 6.7 5.9 6.6 99 0.0 CALM 0 6 0 3 - - 0.0
24/04:30am 6.1 5.2 6.0 99 0.0 CALM 0 0 0 0 - - 0.0
24/04:00am 6.0 5.1 5.9 99 0.0 CALM 0 0 0 0 - - 0.0
24/03:30am 5.8 4.8 5.5 98 0.1 CALM 0 6 0 3 - - 0.0
24/03:00am 6.4 4.8 6.3 99 0.0 SSW 4 9 2 5 - - 0.0
24/02:30am 6.1 5.1 5.8 98 0.1 CALM 0 0 0 0 - - 0.0
24/02:00am 6.6 4.5 6.0 96 0.3 SSW 6 9 3 5 - - 0.0
24/01:30am 7.4 6.2 6.5 94 0.4 W 2 7 1 4 - - 0.0
24/01:00am 8.5 7.5 7.4 93 0.5 N 2 7 1 4 - - 0.0
24/12:30am 8.2 6.4 7.3 94 0.4 NNW 6 7 3 4 - - 0.0
24/12:00am 8.0 6.8 6.6 91 0.6 SSW 2 6 1 3 - - 0.0
 
Date/Time
EST
Temp
°C
App
Temp
°C
Dew
Point
°C
Rel
Hum
%
Delta-T
°C
Wind Press
QNH
hPa
Press
MSL
hPa
Rain since
9am
mm
Dir  Spd
km/h
Gust
km/h
Spd
kts
Gust
kts
23/11:30pm 8.5 7.2 7.7 95 0.4 W 4 9 2 5 - - 0.0
23/11:00pm 7.4 6.6 6.3 93 0.5 CALM 0 0 0 0 - - 0.0
23/10:30pm 7.3 6.4 6.1 92 0.5 CALM 0 0 0 0 - - 0.0
23/10:00pm 7.6 6.7 6.1 90 0.7 CALM 0 0 0 0 - - 0.0
23/09:30pm 7.3 6.2 5.3 87 0.9 CALM 0 0 0 0 - - 0.0
23/09:00pm 8.8 6.8 6.4 85 1.1 WNW 6 9 3 5 - - 0.0
23/08:30pm 8.6 7.2 5.7 82 1.3 WNW 2 7 1 4 - - 0.0
23/08:00pm 8.9 7.9 5.5 79 1.5 CALM 0 0 0 0 - - 0.0
23/07:30pm 9.7 7.6 5.9 77 1.8 NNW 6 7 3 4 - - 0.0
23/07:00pm 9.9 7.8 5.9 76 1.9 N 6 7 3 4 - - 0.0
23/06:30pm 9.8 8.4 5.4 74 2.0 N 2 6 1 3 - - 0.0
23/06:00pm 9.5 7.9 4.5 71 2.2 N 2 7 1 4 - - 0.0
23/05:30pm 11.2 9.4 3.7 60 3.3 N 2 6 1 3 - - 0.0
23/05:00pm 13.6 11.1 3.7 51 4.5 N 6 11 3 6 - - 0.0
23/04:30pm 14.6 12.0 4.0 49 4.9 N 7 9 4 5 - - 0.0
23/04:00pm 14.9 11.9 4.0 48 5.0 N 9 11 5 6 - - 0.0
23/03:30pm 15.2 11.4 3.7 46 5.3 NNW 13 19 7 10 - - 0.0
23/03:00pm 16.0 11.5 2.4 40 6.1 NNW 15 24 8 13 - - 0.0
23/02:30pm 17.3 12.4 2.1 36 6.9 NW 17 30 9 16 - - 0.0
23/02:00pm 17.2 12.2 1.2 34 7.1 NW 17 28 9 15 - - 0.0
23/01:30pm 16.6 12.8 4.0 43 5.9 N 13 20 7 11 - - 0.0
23/01:00pm 15.9 12.1 3.7 44 5.7 N 13 20 7 11 - - 0.0
23/12:30pm 15.2 10.9 3.4 45 5.4 NNW 15 20 8 11 - - 0.0
23/12:00pm 14.5 9.9 1.8 42 5.6 N 15 22 8 12 - - 0.0
23/11:30am 14.1 10.1 2.7 46 5.1 N 13 19 7 10 - - 0.0
23/11:00am 14.3 10.7 2.9 46 5.1 N 11 17 6 9 - - 0.0
23/10:30am 14.1 10.6 3.3 48 4.9 N 11 15 6 8 - - 0.0
23/10:00am 12.9 9.8 3.6 53 4.2 N 9 13 5 7 - - 0.0
23/09:30am 12.5 9.9 4.2 57 3.8 N 7 9 4 5 - - 0.0
23/09:00am 11.1 8.8 4.8 65 2.9 NE 6 7 3 4 - - 0.0
23/08:30am 9.7 7.6 4.1 68 2.5 N 4 6 2 3 - - 0.0
23/08:00am 9.4 6.8 3.4 66 2.6 NNW 6 7 3 4 - - 0.0
23/07:30am 7.3 5.9 3.4 76 1.7 CALM 0 0 0 0 - - 0.0
23/07:00am 7.9 5.1 3.2 72 2.0 N 7 9 4 5 - - 0.0
23/06:30am 7.9 5.6 2.6 69 2.2 NNW 4 7 2 4 - - 0.0
23/06:00am 8.4 6.3 1.8 63 2.7 N 2 6 1 3 - - 0.0
23/05:30am 10.3 7.1 0.9 52 3.9 NNW 7 9 4 5 - - 0.0
23/05:00am 11.9 7.6 1.0 47 4.6 W 13 22 7 12 - - 0.0
23/04:30am 11.4 7.5 1.1 49 4.3 W 11 19 6 10 - - 0.0
23/04:00am 11.2 8.2 0.9 49 4.3 W 6 13 3 7 - - 0.0
23/03:30am 11.3 7.8 1.3 50 4.2 WNW 9 15 5 8 - - 0.0
23/03:00am 10.5 6.7 1.9 55 3.7 W 11 17 6 9 - - 0.0
23/02:30am 9.4 6.4 2.3 61 3.0 WSW 7 13 4 7 - - 0.0
23/02:00am 11.1 7.6 1.4 51 4.1 W 9 13 5 7 - - 0.0
23/01:30am 11.8 8.0 2.0 51 4.2 SW 11 22 6 12 - - 0.0
23/01:00am 10.5 7.5 1.9 55 3.7 SW 7 19 4 10 - - 0.0
23/12:30am 11.1 7.7 1.9 53 3.9 SW 9 15 5 8 - - 0.0
23/12:00am 11.6 8.2 1.8 51 4.2 SW 9 15 5 8 - - 0.0
 
Date/Time
EST
Temp
°C
App
Temp
°C
Dew
Point
°C
Rel
Hum
%
Delta-T
°C
Wind Press
QNH
hPa
Press
MSL
hPa
Rain since
9am
mm
Dir  Spd
km/h
Gust
km/h
Spd
kts
Gust
kts
22/11:30pm 11.6 7.8 1.5 50 4.3 SW 11 22 6 12 - - 0.0
22/11:00pm 11.8 8.3 1.2 48 4.5 SW 9 15 5 8 - - 0.0
22/10:30pm 11.7 8.6 1.1 48 4.5 W 7 13 4 7 - - 0.0

Other Formats:

Comma delimited format used in spreadsheet applications
http://www.bom.gov.au/fwo/IDN60801/IDN60801.94757.axf

JavaScript Object Notation format (JSON) in row-major order
http://www.bom.gov.au/fwo/IDN60801/IDN60801.94757.json